This is the latest recevied weather packets stored in our database for station/object KI7JYE. If no packets are shown the sender has not sent any weather packets the latest 10 day(s).
| Time | Temp. | Humidity | Pressure | Rain* | Wind** | Luminosity | Snow |
|---|---|---|---|---|---|---|---|
| 1778184942 | 20° C | 48% | 1018.2 hPa | 0 mm | - | 593 W/m² | - |
| 1778184639 | 20.56° C | 47% | 1018.1 hPa | 0 mm | - | 665 W/m² | - |
| 1778184334 | 19.44° C | 50% | 1018.4 hPa | 0 mm | - | 558 W/m² | - |
| 1778184030 | 19.44° C | 53% | 1018.5 hPa | 0 mm | - | 632 W/m² | - |
| 1778183728 | 18.89° C | 53% | 1018.3 hPa | 0 mm | - | 652 W/m² | - |
| 1778183425 | 18.89° C | 52% | 1018.3 hPa | 0 mm | - | 645 W/m² | - |
| 1778183121 | 17.22° C | 56% | 1018.4 hPa | 0 mm | - | 617 W/m² | - |
| 1778182818 | 17.78° C | 56% | 1018.4 hPa | 0 mm | - | 637 W/m² | - |
| 1778182515 | 17.78° C | 55% | 1018.6 hPa | 0 mm | - | 661 W/m² | - |
| 1778182212 | 17.22° C | 55% | 1018.6 hPa | 0 mm | - | 673 W/m² | - |
| 1778181908 | 17.78° C | 57% | 1018.7 hPa | 0 mm | - | 678 W/m² | - |
| 1778181605 | 17.78° C | 57% | 1018.7 hPa | 0 mm | - | 689 W/m² | - |
| 1778181300 | 17.22° C | 57% | 1018.6 hPa | 0 mm | - | 698 W/m² | - |
| 1778180997 | 17.22° C | 58% | 1018.8 hPa | 0 mm | - | 661 W/m² | - |
| 1778180695 | 18.89° C | 54% | 1019 hPa | 0 mm | - | 669 W/m² | - |
| 1778180394 | 18.33° C | 55% | 1018.6 hPa | 0 mm | - | 603 W/m² | - |
| 1778180091 | 17.22° C | 59% | 1019 hPa | 0 mm | - | 766 W/m² | - |
| 1778179787 | 17.78° C | 56% | 1019 hPa | 0 mm | - | 805 W/m² | - |
| 1778179485 | 17.22° C | 58% | 1018.9 hPa | 0 mm | - | 763 W/m² | - |
| 1778179183 | 17.78° C | 58% | 1019.1 hPa | 0 mm | - | 754 W/m² | - |
| 1778178879 | 18.33° C | 57% | 1018.8 hPa | 0 mm | - | 809 W/m² | - |
| 1778178577 | 16.67° C | 61% | 1019 hPa | 0 mm | - | 757 W/m² | - |
| 1778178272 | 16.11° C | 60% | 1019 hPa | 0 mm | - | 803 W/m² | - |
| 1778177969 | 16.67° C | 60% | 1019.2 hPa | 0 mm | - | 695 W/m² | - |
| 1778177665 | 18.33° C | 59% | 1019.1 hPa | 0 mm | - | 250 W/m² | - |
* Rain latest hour (hover to see other rain measurements)
** Current wind speed in m/s (hover to see current wind gust speed)